createdAt,value
2023-03-28T00:02:06.783Z,48.79
2023-03-28T00:04:34.632Z,48.74
2023-03-28T00:07:02.517Z,49.43
2023-03-28T00:09:31.558Z,48.95
2023-03-28T00:11:59.324Z,48.79
2023-03-28T00:14:27.485Z,48.96
2023-03-28T00:16:55.087Z,49.43
2023-03-28T00:19:22.737Z,49.26
2023-03-28T00:21:51.303Z,49.42
2023-03-28T00:24:21.558Z,49.05
2023-03-28T00:26:55.477Z,49.10
2023-03-28T00:29:26.048Z,49.25
2023-03-28T00:31:53.905Z,49.35
2023-03-28T00:34:21.756Z,49.64
2023-03-28T00:36:50.783Z,49.46
2023-03-28T00:39:18.874Z,49.10
2023-03-28T00:41:46.875Z,49.01
2023-03-28T00:44:54.510Z,49.30
2023-03-28T00:47:28.189Z,49.50
2023-03-28T00:50:05.373Z,49.27
2023-03-28T00:52:43.925Z,49.16
2023-03-28T00:55:31.125Z,48.86
2023-03-28T00:57:59.783Z,49.21
2023-03-28T01:00:30.924Z,49.10
2023-03-28T01:03:02.586Z,49.00
2023-03-28T01:05:34.079Z,49.14
2023-03-28T01:08:28.290Z,48.65
2023-03-28T01:10:56.399Z,48.53
2023-03-28T01:13:29.862Z,48.92
2023-03-28T01:16:02.667Z,48.83
2023-03-28T01:18:37.396Z,48.55
2023-03-28T01:21:05.867Z,49.04
2023-03-28T01:24:13.428Z,49.04
2023-03-28T01:26:50.890Z,49.25
2023-03-28T01:29:38.492Z,49.01
2023-03-28T01:32:51.483Z,49.37
2023-03-28T01:36:01.348Z,49.25
2023-03-28T01:38:59.457Z,49.19
2023-03-28T01:41:41.995Z,49.35
2023-03-28T01:44:48.727Z,49.21
2023-03-28T01:47:47.180Z,49.45
2023-03-28T01:50:30.989Z,48.95
2023-03-28T01:53:14.410Z,49.15
2023-03-28T01:56:01.794Z,48.93
2023-03-28T01:58:41.853Z,49.32
2023-03-28T02:01:36.882Z,49.07
2023-03-28T02:04:21.432Z,49.34
2023-03-28T02:06:57.414Z,49.48
2023-03-28T02:09:33.003Z,49.23
2023-03-28T02:12:25.062Z,49.11
2023-03-28T02:15:15.771Z,49.15
2023-03-28T02:18:23.639Z,49.04
2023-03-28T02:21:08.857Z,49.30
2023-03-28T02:23:59.424Z,49.15
2023-03-28T02:26:55.230Z,49.66
2023-03-28T02:29:39.172Z,49.67
2023-03-28T02:32:17.731Z,49.03
2023-03-28T02:34:48.875Z,49.64
2023-03-28T02:37:31.610Z,49.37
2023-03-28T02:40:17.131Z,49.18
2023-03-28T02:43:21.234Z,49.35
2023-03-28T02:46:32.330Z,49.46
2023-03-28T02:49:25.269Z,49.46
2023-03-28T02:52:09.582Z,49.18
2023-03-28T02:55:19.416Z,49.24
2023-03-28T02:58:26.456Z,49.45
2023-03-28T03:00:54.378Z,49.29
2023-03-28T03:03:23.643Z,49.70
2023-03-28T03:05:51.657Z,49.32
2023-03-28T03:08:19.550Z,49.47
2023-03-28T03:10:47.788Z,49.73
2023-03-28T03:13:17.936Z,49.55
2023-03-28T03:15:46.546Z,49.76
2023-03-28T03:18:26.397Z,49.39
2023-03-28T03:20:54.799Z,49.64
2023-03-28T03:23:22.849Z,49.24
2023-03-28T03:25:54.962Z,49.55
2023-03-28T03:28:44.467Z,49.61
2023-03-28T03:31:12.459Z,50.04
2023-03-28T03:33:53.079Z,49.73
2023-03-28T03:36:27.217Z,49.86
2023-03-28T03:38:55.291Z,49.81
2023-03-28T03:41:24.484Z,49.60
2023-03-28T03:43:52.593Z,49.74
2023-03-28T03:46:20.766Z,49.86
2023-03-28T03:48:50.692Z,49.76
2023-03-28T03:51:19.225Z,49.76
2023-03-28T03:53:50.717Z,49.68
2023-03-28T03:56:21.368Z,49.79
2023-03-28T03:58:54.744Z,49.55
2023-03-28T04:01:30.064Z,50.01
2023-03-28T04:04:13.140Z,49.87
2023-03-28T04:07:04.146Z,50.27
2023-03-28T04:09:32.754Z,50.38
2023-03-28T04:12:06.470Z,49.98
2023-03-28T04:14:44.709Z,50.43
2023-03-28T04:17:35.776Z,50.25
2023-03-28T04:20:13.975Z,49.95
2023-03-28T04:23:04.263Z,50.21
2023-03-28T04:25:32.300Z,50.20
2023-03-28T04:28:10.576Z,50.24
2023-03-28T04:30:59.884Z,50.18
2023-03-28T04:33:53.842Z,50.19
2023-03-28T04:36:25.614Z,50.22
2023-03-28T04:39:02.624Z,50.57
2023-03-28T04:42:02.086Z,50.47
2023-03-28T04:44:49.135Z,50.03
2023-03-28T04:47:18.669Z,50.27
2023-03-28T04:49:48.711Z,50.29
2023-03-28T04:52:16.924Z,50.38
2023-03-28T04:54:47.522Z,50.45
2023-03-28T04:57:18.044Z,50.07
2023-03-28T04:59:49.656Z,50.14
2023-03-28T05:02:38.789Z,50.36
2023-03-28T05:05:10.235Z,49.97
2023-03-28T05:07:38.146Z,50.26
2023-03-28T05:10:08.447Z,50.06
2023-03-28T05:12:40.288Z,50.43
2023-03-28T05:15:11.345Z,50.22
2023-03-28T05:18:06.840Z,50.53
2023-03-28T05:20:39.361Z,50.33
2023-03-28T05:23:09.672Z,50.71
2023-03-28T05:25:40.532Z,50.29
2023-03-28T05:28:11.161Z,50.37
2023-03-28T05:30:48.740Z,50.68
2023-03-28T05:33:17.659Z,50.66
2023-03-28T05:35:47.091Z,50.46
2023-03-28T05:38:16.355Z,50.34
2023-03-28T05:40:53.978Z,50.66
2023-03-28T05:43:21.866Z,50.61
2023-03-28T05:45:50.028Z,50.75
2023-03-28T05:48:42.984Z,50.63
2023-03-28T05:51:20.884Z,50.61
2023-03-28T05:53:49.358Z,50.83
2023-03-28T05:56:17.277Z,50.65
2023-03-28T05:58:44.877Z,50.99
2023-03-28T06:01:14.557Z,50.83
2023-03-28T06:03:43.123Z,50.97
2023-03-28T06:06:11.525Z,51.36
2023-03-28T06:08:42.430Z,51.15
2023-03-28T06:11:13.891Z,51.11
2023-03-28T06:14:06.587Z,51.38
2023-03-28T06:16:35.820Z,51.38
2023-03-28T06:19:17.222Z,50.92
2023-03-28T06:21:50.492Z,51.74
2023-03-28T06:24:18.279Z,51.77
2023-03-28T06:26:47.138Z,51.92
2023-03-28T06:29:19.544Z,52.01
2023-03-28T06:31:49.512Z,52.46
2023-03-28T06:34:17.516Z,52.17
2023-03-28T06:36:59.555Z,52.75
2023-03-28T06:39:42.564Z,52.93
2023-03-28T06:42:10.762Z,53.03
2023-03-28T06:44:49.254Z,52.67
2023-03-28T06:47:37.776Z,52.81
2023-03-28T06:50:07.836Z,52.22
2023-03-28T06:52:55.375Z,52.67
2023-03-28T06:55:25.968Z,52.55
2023-03-28T06:57:54.125Z,52.50
2023-03-28T07:00:31.369Z,52.62
2023-03-28T07:03:19.638Z,52.52
2023-03-28T07:05:47.569Z,52.18
2023-03-28T07:08:19.215Z,52.27
2023-03-28T07:10:47.865Z,52.26
2023-03-28T07:13:15.761Z,52.16
2023-03-28T07:16:11.937Z,51.87
2023-03-28T07:18:41.290Z,52.68
2023-03-28T07:21:17.717Z,52.34
2023-03-28T07:23:45.840Z,52.43
2023-03-28T07:26:19.457Z,52.07
2023-03-28T07:28:47.183Z,52.73
2023-03-28T07:31:15.746Z,52.67
2023-03-28T07:33:44.703Z,52.40
2023-03-28T07:36:22.291Z,52.40
2023-03-28T07:38:59.614Z,52.08
2023-03-28T07:41:27.462Z,52.18
2023-03-28T07:43:55.234Z,52.19
2023-03-28T07:46:25.839Z,52.64
2023-03-28T07:48:55.615Z,52.37
2023-03-28T07:51:24.286Z,52.13
2023-03-28T07:53:54.099Z,51.89
2023-03-28T07:56:21.968Z,52.25
2023-03-28T07:59:22.763Z,52.07
2023-03-28T08:01:54.201Z,51.77
2023-03-28T08:04:23.475Z,51.53
2023-03-28T08:07:02.227Z,51.34
2023-03-28T08:09:31.456Z,51.34
2023-03-28T08:12:08.346Z,51.00
2023-03-28T08:14:37.874Z,50.65
2023-03-28T08:17:06.285Z,50.46
2023-03-28T08:19:35.884Z,50.28
2023-03-28T08:22:26.016Z,49.85
2023-03-28T08:25:12.566Z,49.86
2023-03-28T08:27:42.665Z,49.76
2023-03-28T08:30:14.575Z,49.37
2023-03-28T08:32:51.689Z,49.55
2023-03-28T08:35:20.986Z,49.31
2023-03-28T08:37:53.024Z,49.17
2023-03-28T08:40:25.488Z,48.98
2023-03-28T08:43:09.086Z,48.62
2023-03-28T08:45:46.018Z,48.23
2023-03-28T08:48:23.443Z,48.11
2023-03-28T08:51:06.048Z,48.16
2023-03-28T08:53:44.041Z,48.22
2023-03-28T08:56:16.347Z,48.00
2023-03-28T08:58:58.632Z,47.99
2023-03-28T09:01:32.683Z,47.96
2023-03-28T09:04:05.763Z,47.94
2023-03-28T09:06:45.381Z,47.38
2023-03-28T09:10:18.928Z,46.99
2023-03-28T09:12:58.285Z,47.53
2023-03-28T09:15:40.444Z,46.85
2023-03-28T09:18:54.792Z,46.93
2023-03-28T09:22:02.193Z,46.69
2023-03-28T09:25:15.307Z,46.76
2023-03-28T09:28:31.710Z,46.19
2023-03-28T09:31:00.704Z,46.66
2023-03-28T09:33:38.072Z,45.92
2023-03-28T09:36:31.839Z,46.13
2023-03-28T09:39:27.082Z,45.40
2023-03-28T09:42:24.076Z,45.46
2023-03-28T09:45:36.209Z,45.79
2023-03-28T09:48:28.557Z,45.98
2023-03-28T09:50:59.151Z,46.03
2023-03-28T09:53:32.913Z,45.62
2023-03-28T09:56:28.797Z,45.42
2023-03-28T09:59:28.534Z,44.66
2023-03-28T10:02:05.644Z,44.98
2023-03-28T10:04:39.478Z,45.04
2023-03-28T10:07:43.780Z,44.18
2023-03-28T10:10:25.024Z,44.90
2023-03-28T10:13:05.183Z,44.47
2023-03-28T10:15:48.151Z,43.98
2023-03-28T10:18:56.492Z,44.29
2023-03-28T10:21:35.081Z,43.71
2023-03-28T10:24:20.098Z,43.70
2023-03-28T10:27:01.439Z,43.56
2023-03-28T10:29:53.540Z,43.62
2023-03-28T10:32:43.420Z,43.70
2023-03-28T10:35:30.894Z,42.69
2023-03-28T10:38:18.803Z,42.08
2023-03-28T10:41:12.246Z,43.15
2023-03-28T10:44:19.850Z,42.36
2023-03-28T10:47:12.700Z,41.91
2023-03-28T10:49:55.719Z,41.18
2023-03-28T10:52:25.941Z,41.21
2023-03-28T10:55:25.807Z,41.34
2023-03-28T10:58:41.370Z,41.10
2023-03-28T11:01:23.280Z,41.63
2023-03-28T11:04:16.443Z,41.00
2023-03-28T11:06:59.282Z,41.46
2023-03-28T11:10:23.009Z,40.50
2023-03-28T11:13:31.369Z,40.56
2023-03-28T11:16:13.128Z,40.54
2023-03-28T11:19:36.573Z,40.52
2023-03-28T11:22:47.547Z,40.37
2023-03-28T11:25:29.269Z,40.82
2023-03-28T11:28:27.912Z,40.32
2023-03-28T11:31:05.858Z,40.33
2023-03-28T11:33:57.553Z,39.32
2023-03-28T11:36:34.226Z,39.47
2023-03-28T11:39:33.006Z,39.07
2023-03-28T11:42:08.919Z,39.41
2023-03-28T11:45:11.773Z,38.54
2023-03-28T11:48:05.383Z,38.86
2023-03-28T11:51:03.450Z,39.09
2023-03-28T11:53:57.377Z,38.97
2023-03-28T11:56:57.782Z,38.77
2023-03-28T11:59:59.566Z,38.84
2023-03-28T12:02:42.704Z,38.51
2023-03-28T12:05:39.372Z,38.36
2023-03-28T12:08:28.127Z,38.44
2023-03-28T12:11:24.109Z,38.29
2023-03-28T12:14:26.746Z,37.79
2023-03-28T12:16:59.186Z,38.17
2023-03-28T12:19:44.359Z,37.38
2023-03-28T12:22:33.019Z,37.54
2023-03-28T12:25:28.520Z,37.42
2023-03-28T12:28:37.121Z,37.40
2023-03-28T12:31:22.068Z,37.36
2023-03-28T12:34:06.674Z,37.02
2023-03-28T12:37:22.399Z,36.36
2023-03-28T12:40:15.633Z,37.41
2023-03-28T12:42:46.558Z,37.65
2023-03-28T12:45:53.217Z,37.01
2023-03-28T12:48:49.771Z,36.34
2023-03-28T12:51:33.714Z,36.33
2023-03-28T12:54:26.387Z,36.21
2023-03-28T12:57:07.316Z,35.91
2023-03-28T13:00:16.479Z,35.85
2023-03-28T13:03:41.248Z,35.96
2023-03-28T13:06:42.476Z,35.42
2023-03-28T13:09:49.339Z,35.97
2023-03-28T13:12:23.312Z,35.76
2023-03-28T13:15:27.496Z,35.42
2023-03-28T13:18:20.272Z,34.52
2023-03-28T13:20:52.202Z,35.54
2023-03-28T13:23:35.750Z,35.31
2023-03-28T13:26:06.632Z,35.51
2023-03-28T13:28:50.468Z,35.10
2023-03-28T13:31:18.325Z,35.27
2023-03-28T13:34:02.476Z,35.18
2023-03-28T13:36:35.411Z,35.02
2023-03-28T13:39:05.734Z,35.18
2023-03-28T13:41:35.757Z,34.90
2023-03-28T13:44:38.866Z,34.87
2023-03-28T13:47:11.308Z,35.35
2023-03-28T13:50:02.602Z,34.55
2023-03-28T13:52:30.921Z,34.90
2023-03-28T13:55:14.616Z,34.61
2023-03-28T13:57:42.565Z,34.81
2023-03-28T14:00:16.866Z,34.48
2023-03-28T14:02:53.645Z,34.48
2023-03-28T14:05:23.019Z,34.70
2023-03-28T14:07:53.778Z,34.86
2023-03-28T14:10:40.530Z,34.50
2023-03-28T14:13:20.306Z,34.66
2023-03-28T14:15:51.701Z,34.94
2023-03-28T14:18:32.502Z,34.31
2023-03-28T14:21:01.400Z,34.56
2023-03-28T14:23:35.440Z,34.29
2023-03-28T14:26:16.630Z,34.01
2023-03-28T14:28:46.742Z,34.60
2023-03-28T14:31:35.398Z,33.68
2023-03-28T14:34:18.639Z,34.17
2023-03-28T14:36:59.504Z,34.23
2023-03-28T14:39:37.145Z,33.98
2023-03-28T14:42:08.472Z,34.19
2023-03-28T14:44:44.591Z,33.65
2023-03-28T14:47:32.763Z,33.89
2023-03-28T14:50:02.001Z,34.00
2023-03-28T14:52:40.889Z,33.66
2023-03-28T14:55:15.551Z,33.41
2023-03-28T14:57:49.320Z,33.40
2023-03-28T15:00:22.914Z,33.21
2023-03-28T15:02:53.013Z,33.22
2023-03-28T15:05:23.039Z,33.12
2023-03-28T15:08:02.040Z,32.74
2023-03-28T15:10:32.256Z,33.11
2023-03-28T15:13:06.366Z,33.05
2023-03-28T15:15:44.234Z,32.79
2023-03-28T15:18:17.562Z,32.88
2023-03-28T15:20:52.141Z,32.91
2023-03-28T15:23:34.909Z,32.97
2023-03-28T15:26:09.460Z,33.14
2023-03-28T15:28:37.542Z,33.21
2023-03-28T15:31:09.538Z,32.98
2023-03-28T15:33:39.826Z,33.05
2023-03-28T15:36:17.830Z,32.85
2023-03-28T15:38:52.449Z,32.97
2023-03-28T15:41:28.974Z,32.86
2023-03-28T15:44:27.646Z,32.72
2023-03-28T15:47:12.195Z,32.88
2023-03-28T15:49:40.642Z,33.13
2023-03-28T15:52:20.300Z,32.82
2023-03-28T15:54:59.223Z,32.94
2023-03-28T15:57:30.345Z,33.11
2023-03-28T16:00:00.207Z,32.88
2023-03-28T16:02:28.280Z,33.00
2023-03-28T16:05:13.666Z,32.81
2023-03-28T16:07:44.287Z,32.96
2023-03-28T16:10:18.784Z,32.96
2023-03-28T16:13:14.558Z,33.10
2023-03-28T16:15:53.618Z,33.12
2023-03-28T16:18:37.433Z,33.02
2023-03-28T16:21:08.473Z,33.02
2023-03-28T16:23:36.180Z,32.78
2023-03-28T16:26:05.244Z,32.75
2023-03-28T16:28:33.115Z,32.80
2023-03-28T16:31:24.867Z,32.87
2023-03-28T16:33:52.668Z,32.87
2023-03-28T16:36:20.512Z,32.98
2023-03-28T16:38:50.694Z,32.90
2023-03-28T16:41:18.763Z,32.77
2023-03-28T16:43:47.295Z,32.82
2023-03-28T16:46:15.874Z,32.79
2023-03-28T16:48:45.274Z,32.78
2023-03-28T16:51:13.576Z,32.63
2023-03-28T16:53:41.725Z,32.84
2023-03-28T16:56:15.022Z,33.06
2023-03-28T16:58:43.210Z,32.95
2023-03-28T17:01:19.282Z,32.83
2023-03-28T17:03:48.613Z,32.96
2023-03-28T17:06:17.009Z,33.25
2023-03-28T17:08:44.988Z,33.16
2023-03-28T17:11:14.184Z,33.27
2023-03-28T17:13:43.081Z,33.34
2023-03-28T17:16:11.364Z,33.33
2023-03-28T17:18:39.244Z,33.40
2023-03-28T17:21:11.626Z,33.56
2023-03-28T17:23:45.481Z,33.44
2023-03-28T17:26:15.481Z,34.35
2023-03-28T17:28:44.169Z,34.03
2023-03-28T17:31:19.035Z,33.86
2023-03-28T17:33:48.725Z,33.84
2023-03-28T17:36:26.481Z,33.89
2023-03-28T17:38:57.557Z,33.83
2023-03-28T17:41:27.662Z,34.02
2023-03-28T17:43:57.690Z,34.11
2023-03-28T17:46:28.357Z,34.10
2023-03-28T17:48:58.266Z,33.98
2023-03-28T17:51:26.084Z,33.91
2023-03-28T17:53:55.728Z,33.93
2023-03-28T17:56:24.490Z,34.24
2023-03-28T17:58:52.719Z,34.78
2023-03-28T18:01:20.738Z,34.75
2023-03-28T18:03:53.574Z,34.89
2023-03-28T18:06:41.354Z,34.96
2023-03-28T18:09:09.504Z,35.23
2023-03-28T18:11:39.187Z,35.43
2023-03-28T18:14:08.550Z,35.82
2023-03-28T18:16:38.589Z,36.21
2023-03-28T18:19:06.868Z,36.45
2023-03-28T18:21:34.672Z,36.70
2023-03-28T18:24:02.543Z,36.86
2023-03-28T18:26:31.428Z,37.12
2023-03-28T18:29:00.272Z,37.21
2023-03-28T18:31:28.922Z,37.45
2023-03-28T18:33:57.872Z,37.71
2023-03-28T18:36:26.102Z,37.80
2023-03-28T18:38:55.858Z,37.97
2023-03-28T18:41:24.637Z,38.04
2023-03-28T18:43:53.169Z,38.22
2023-03-28T18:46:21.087Z,38.50
2023-03-28T18:48:49.029Z,38.62
2023-03-28T18:51:18.336Z,38.67
2023-03-28T18:53:46.286Z,38.71
2023-03-28T18:56:14.351Z,38.92
2023-03-28T18:58:42.274Z,38.85
2023-03-28T19:01:11.945Z,39.04
2023-03-28T19:03:41.642Z,39.13
2023-03-28T19:06:14.231Z,39.23
2023-03-28T19:08:44.974Z,39.04
2023-03-28T19:11:16.670Z,39.02
2023-03-28T19:13:44.507Z,38.86
2023-03-28T19:16:15.523Z,38.72
2023-03-28T19:18:46.881Z,38.84
2023-03-28T19:21:16.757Z,38.56
2023-03-28T19:23:46.958Z,38.41
2023-03-28T19:26:15.648Z,38.17
2023-03-28T19:28:43.658Z,38.05
2023-03-28T19:31:15.052Z,38.25
2023-03-28T19:33:43.324Z,38.07
2023-03-28T19:36:11.771Z,38.36
2023-03-28T19:38:41.796Z,38.43
2023-03-28T19:41:22.081Z,38.47
2023-03-28T19:43:51.246Z,38.42
2023-03-28T19:46:32.471Z,38.44
2023-03-28T19:49:05.852Z,38.37
2023-03-28T19:51:36.482Z,38.42
2023-03-28T19:54:04.725Z,38.47
2023-03-28T19:56:32.664Z,38.64
2023-03-28T19:59:00.523Z,38.63
2023-03-28T20:01:28.375Z,38.75
2023-03-28T20:03:56.278Z,38.83
2023-03-28T20:06:24.378Z,38.57
2023-03-28T20:08:52.467Z,38.80
2023-03-28T20:11:20.704Z,38.85
2023-03-28T20:13:48.528Z,39.19
2023-03-28T20:16:16.625Z,39.35
2023-03-28T20:18:48.332Z,39.45
2023-03-28T20:21:16.196Z,39.41
2023-03-28T20:23:43.950Z,39.30
2023-03-28T20:26:22.085Z,39.10
2023-03-28T20:28:56.798Z,39.07
2023-03-28T20:31:25.317Z,38.91
2023-03-28T20:33:54.309Z,38.92
2023-03-28T20:36:23.150Z,38.76
2023-03-28T20:38:51.473Z,38.60
2023-03-28T20:41:19.548Z,38.78
2023-03-28T20:43:47.784Z,38.88
2023-03-28T20:46:21.216Z,38.84
2023-03-28T20:48:53.126Z,38.70
2023-03-28T20:51:22.809Z,38.75
2023-03-28T20:53:57.093Z,38.75
2023-03-28T20:56:27.865Z,38.59
2023-03-28T20:59:00.678Z,38.79
2023-03-28T21:01:30.536Z,38.83
2023-03-28T21:04:02.690Z,39.06
2023-03-28T21:06:38.105Z,38.82
2023-03-28T21:09:09.787Z,38.81
2023-03-28T21:11:39.565Z,39.15
2023-03-28T21:14:10.493Z,39.07
2023-03-28T21:16:38.591Z,39.09
2023-03-28T21:19:06.889Z,39.04
2023-03-28T21:21:35.196Z,39.03
2023-03-28T21:24:05.247Z,38.97
2023-03-28T21:26:33.051Z,38.69
2023-03-28T21:29:00.771Z,38.74
2023-03-28T21:31:29.671Z,38.72
2023-03-28T21:33:59.165Z,38.64
2023-03-28T21:36:28.018Z,38.65
2023-03-28T21:38:56.903Z,38.78
2023-03-28T21:41:27.044Z,38.80
2023-03-28T21:43:54.974Z,38.81
2023-03-28T21:46:23.344Z,38.95
2023-03-28T21:48:51.253Z,38.99
2023-03-28T21:51:19.282Z,39.03
2023-03-28T21:53:47.115Z,39.14
2023-03-28T21:56:16.658Z,39.21
2023-03-28T21:58:44.854Z,39.13
2023-03-28T22:01:15.239Z,39.30
2023-03-28T22:03:45.549Z,39.48
2023-03-28T22:06:16.452Z,39.50
2023-03-28T22:08:46.010Z,39.71
2023-03-28T22:11:21.345Z,39.89
2023-03-28T22:13:49.335Z,39.94
2023-03-28T22:16:17.129Z,39.86
2023-03-28T22:18:50.093Z,39.73
2023-03-28T22:21:18.335Z,39.96
2023-03-28T22:23:47.748Z,39.94
2023-03-28T22:26:16.383Z,40.00
2023-03-28T22:28:44.580Z,39.99
2023-03-28T22:31:13.367Z,40.69
2023-03-28T22:33:41.427Z,40.74
2023-03-28T22:36:10.709Z,40.79
2023-03-28T22:38:38.593Z,40.96
2023-03-28T22:41:07.649Z,41.08
2023-03-28T22:43:36.257Z,41.00
2023-03-28T22:46:05.629Z,41.17
2023-03-28T22:48:33.573Z,41.26
2023-03-28T22:51:01.961Z,41.38
2023-03-28T22:53:30.486Z,41.47
2023-03-28T22:55:58.606Z,41.65
2023-03-28T22:58:27.248Z,41.75
2023-03-28T23:00:55.024Z,41.79
2023-03-28T23:03:22.925Z,41.58
2023-03-28T23:05:51.643Z,41.74
2023-03-28T23:08:20.330Z,41.60
2023-03-28T23:10:48.435Z,41.52
2023-03-28T23:13:16.652Z,41.77
2023-03-28T23:15:44.974Z,42.00
2023-03-28T23:18:14.502Z,42.08
2023-03-28T23:20:42.907Z,42.23
2023-03-28T23:23:12.639Z,42.36
2023-03-28T23:25:40.564Z,42.54
2023-03-28T23:28:08.621Z,42.62
2023-03-28T23:30:39.014Z,42.55
2023-03-28T23:33:07.247Z,42.84
2023-03-28T23:35:35.394Z,42.99
2023-03-28T23:38:03.207Z,42.96
2023-03-28T23:40:31.077Z,42.79
2023-03-28T23:42:58.967Z,42.82
2023-03-28T23:45:26.906Z,42.92
2023-03-28T23:47:54.799Z,42.87
2023-03-28T23:50:22.817Z,42.82
2023-03-28T23:52:50.563Z,43.13
2023-03-28T23:55:18.409Z,43.01
2023-03-28T23:57:47.164Z,43.12
